sensor_id;sensor_type;location;lat;lon;timestamp;temperature;humidity
3564;DHT22;1796;52.388;13.096;2023-07-29T00:02:04;16.30;99.90
3564;DHT22;1796;52.388;13.096;2023-07-29T00:04:31;16.30;99.90
3564;DHT22;1796;52.388;13.096;2023-07-29T00:06:58;16.20;99.90
3564;DHT22;1796;52.388;13.096;2023-07-29T00:09:26;16.20;99.90
3564;DHT22;1796;52.388;13.096;2023-07-29T00:11:53;16.20;99.90
3564;DHT22;1796;52.388;13.096;2023-07-29T00:14:20;16.20;99.90
3564;DHT22;1796;52.388;13.096;2023-07-29T00:16:46;16.10;99.90
3564;DHT22;1796;52.388;13.096;2023-07-29T00:19:13;16.10;99.90
3564;DHT22;1796;52.388;13.096;2023-07-29T00:21:40;16.10;99.90
3564;DHT22;1796;52.388;13.096;2023-07-29T00:24:07;16.10;99.90
3564;DHT22;1796;52.388;13.096;2023-07-29T00:26:35;16.10;99.90
3564;DHT22;1796;52.388;13.096;2023-07-29T00:29:02;16.10;99.90
3564;DHT22;1796;52.388;13.096;2023-07-29T00:31:29;16.10;99.90
3564;DHT22;1796;52.388;13.096;2023-07-29T00:33:56;16.00;99.90
3564;DHT22;1796;52.388;13.096;2023-07-29T00:36:23;16.10;99.90
3564;DHT22;1796;52.388;13.096;2023-07-29T00:38:50;16.10;99.90
3564;DHT22;1796;52.388;13.096;2023-07-29T00:41:18;16.10;99.90
3564;DHT22;1796;52.388;13.096;2023-07-29T00:43:47;16.10;99.90
3564;DHT22;1796;52.388;13.096;2023-07-29T00:46:14;16.10;99.90
3564;DHT22;1796;52.388;13.096;2023-07-29T00:48:41;16.10;99.90
3564;DHT22;1796;52.388;13.096;2023-07-29T00:51:08;16.10;99.90
3564;DHT22;1796;52.388;13.096;2023-07-29T00:53:36;16.00;99.90
3564;DHT22;1796;52.388;13.096;2023-07-29T00:56:03;16.10;99.90
3564;DHT22;1796;52.388;13.096;2023-07-29T00:58:30;16.00;99.90
3564;DHT22;1796;52.388;13.096;2023-07-29T01:00:58;16.00;99.90
3564;DHT22;1796;52.388;13.096;2023-07-29T01:03:25;16.00;99.90
3564;DHT22;1796;52.388;13.096;2023-07-29T01:06:01;15.90;99.90
3564;DHT22;1796;52.388;13.096;2023-07-29T01:08:38;15.90;99.90
3564;DHT22;1796;52.388;13.096;2023-07-29T01:11:18;15.80;99.90
3564;DHT22;1796;52.388;13.096;2023-07-29T01:13:50;15.90;99.90
3564;DHT22;1796;52.388;13.096;2023-07-29T01:16:25;15.70;99.90
3564;DHT22;1796;52.388;13.096;2023-07-29T01:18:58;15.70;99.90
3564;DHT22;1796;52.388;13.096;2023-07-29T01:21:29;15.60;99.90
3564;DHT22;1796;52.388;13.096;2023-07-29T01:23:59;15.50;99.90
3564;DHT22;1796;52.388;13.096;2023-07-29T01:26:26;15.50;99.90
3564;DHT22;1796;52.388;13.096;2023-07-29T01:28:55;15.40;99.90
3564;DHT22;1796;52.388;13.096;2023-07-29T01:31:27;15.50;99.90
3564;DHT22;1796;52.388;13.096;2023-07-29T01:33:59;15.40;99.90
3564;DHT22;1796;52.388;13.096;2023-07-29T01:36:29;15.40;99.90
3564;DHT22;1796;52.388;13.096;2023-07-29T01:39:02;15.30;99.90
3564;DHT22;1796;52.388;13.096;2023-07-29T01:41:29;15.30;99.90
3564;DHT22;1796;52.388;13.096;2023-07-29T01:43:56;15.20;99.90
3564;DHT22;1796;52.388;13.096;2023-07-29T01:46:23;15.20;99.90
3564;DHT22;1796;52.388;13.096;2023-07-29T01:48:50;15.20;99.90
3564;DHT22;1796;52.388;13.096;2023-07-29T01:51:17;15.30;99.90
3564;DHT22;1796;52.388;13.096;2023-07-29T01:53:44;15.30;99.90
3564;DHT22;1796;52.388;13.096;2023-07-29T01:56:12;15.40;99.90
3564;DHT22;1796;52.388;13.096;2023-07-29T01:58:39;15.30;99.90
3564;DHT22;1796;52.388;13.096;2023-07-29T02:01:06;15.40;99.90
3564;DHT22;1796;52.388;13.096;2023-07-29T02:03:33;15.40;99.90
3564;DHT22;1796;52.388;13.096;2023-07-29T02:05:59;15.30;99.90
3564;DHT22;1796;52.388;13.096;2023-07-29T02:08:26;15.30;99.90
3564;DHT22;1796;52.388;13.096;2023-07-29T02:10:53;15.20;99.90
3564;DHT22;1796;52.388;13.096;2023-07-29T02:13:21;15.20;99.90
3564;DHT22;1796;52.388;13.096;2023-07-29T02:15:48;15.30;99.90
3564;DHT22;1796;52.388;13.096;2023-07-29T02:18:15;15.30;99.90
3564;DHT22;1796;52.388;13.096;2023-07-29T02:20:42;15.20;99.90
3564;DHT22;1796;52.388;13.096;2023-07-29T02:23:14;15.20;99.90
3564;DHT22;1796;52.388;13.096;2023-07-29T02:25:41;15.00;99.90
3564;DHT22;1796;52.388;13.096;2023-07-29T02:28:08;15.00;99.90
3564;DHT22;1796;52.388;13.096;2023-07-29T02:30:36;15.10;99.90
3564;DHT22;1796;52.388;13.096;2023-07-29T02:33:03;15.10;99.90
3564;DHT22;1796;52.388;13.096;2023-07-29T02:35:30;15.00;99.90
3564;DHT22;1796;52.388;13.096;2023-07-29T02:37:57;15.00;99.90
3564;DHT22;1796;52.388;13.096;2023-07-29T02:40:24;14.90;99.90
3564;DHT22;1796;52.388;13.096;2023-07-29T02:42:52;14.90;99.90
3564;DHT22;1796;52.388;13.096;2023-07-29T02:45:19;14.80;99.90
3564;DHT22;1796;52.388;13.096;2023-07-29T02:47:47;14.80;99.90
3564;DHT22;1796;52.388;13.096;2023-07-29T02:50:14;14.90;99.90
3564;DHT22;1796;52.388;13.096;2023-07-29T02:52:41;14.90;99.90
3564;DHT22;1796;52.388;13.096;2023-07-29T02:55:08;14.90;99.90
3564;DHT22;1796;52.388;13.096;2023-07-29T02:57:35;15.00;99.90
3564;DHT22;1796;52.388;13.096;2023-07-29T03:00:02;15.00;99.90
3564;DHT22;1796;52.388;13.096;2023-07-29T03:02:29;15.10;99.90
3564;DHT22;1796;52.388;13.096;2023-07-29T03:04:57;15.20;99.90
3564;DHT22;1796;52.388;13.096;2023-07-29T03:07:24;15.20;99.90
3564;DHT22;1796;52.388;13.096;2023-07-29T03:09:51;15.30;99.90
3564;DHT22;1796;52.388;13.096;2023-07-29T03:12:18;15.30;99.90
3564;DHT22;1796;52.388;13.096;2023-07-29T03:14:47;15.30;99.90
3564;DHT22;1796;52.388;13.096;2023-07-29T03:17:14;15.30;99.90
3564;DHT22;1796;52.388;13.096;2023-07-29T03:19:41;15.20;99.90
3564;DHT22;1796;52.388;13.096;2023-07-29T03:22:09;15.20;99.90
3564;DHT22;1796;52.388;13.096;2023-07-29T03:24:36;15.20;99.90
3564;DHT22;1796;52.388;13.096;2023-07-29T03:27:03;15.20;99.90
3564;DHT22;1796;52.388;13.096;2023-07-29T03:29:30;15.20;99.90
3564;DHT22;1796;52.388;13.096;2023-07-29T03:31:57;15.20;99.90
3564;DHT22;1796;52.388;13.096;2023-07-29T03:34:24;15.20;99.90
3564;DHT22;1796;52.388;13.096;2023-07-29T03:36:51;15.30;99.90
3564;DHT22;1796;52.388;13.096;2023-07-29T03:39:19;15.30;99.90
3564;DHT22;1796;52.388;13.096;2023-07-29T03:41:46;15.30;99.90
3564;DHT22;1796;52.388;13.096;2023-07-29T03:44:13;15.30;99.90
3564;DHT22;1796;52.388;13.096;2023-07-29T03:46:40;15.30;99.90
3564;DHT22;1796;52.388;13.096;2023-07-29T03:49:07;15.40;99.90
3564;DHT22;1796;52.388;13.096;2023-07-29T03:51:34;15.40;99.90
3564;DHT22;1796;52.388;13.096;2023-07-29T03:54:00;15.40;99.90
3564;DHT22;1796;52.388;13.096;2023-07-29T03:56:29;15.50;99.90
3564;DHT22;1796;52.388;13.096;2023-07-29T03:59:02;15.70;99.90
3564;DHT22;1796;52.388;13.096;2023-07-29T04:01:29;15.80;99.90
3564;DHT22;1796;52.388;13.096;2023-07-29T04:03:56;15.90;99.90
3564;DHT22;1796;52.388;13.096;2023-07-29T04:06:23;16.00;99.90
3564;DHT22;1796;52.388;13.096;2023-07-29T04:08:50;16.00;99.90
3564;DHT22;1796;52.388;13.096;2023-07-29T04:11:17;16.20;99.90
3564;DHT22;1796;52.388;13.096;2023-07-29T04:13:45;16.50;99.90
3564;DHT22;1796;52.388;13.096;2023-07-29T04:16:12;16.90;99.90
3564;DHT22;1796;52.388;13.096;2023-07-29T04:18:39;16.90;99.90
3564;DHT22;1796;52.388;13.096;2023-07-29T04:21:06;16.80;99.90
3564;DHT22;1796;52.388;13.096;2023-07-29T04:23:32;16.50;99.90
3564;DHT22;1796;52.388;13.096;2023-07-29T04:26:00;16.40;99.90
3564;DHT22;1796;52.388;13.096;2023-07-29T04:28:27;16.40;99.90
3564;DHT22;1796;52.388;13.096;2023-07-29T04:30:55;16.60;99.90
3564;DHT22;1796;52.388;13.096;2023-07-29T04:33:22;16.80;99.90
3564;DHT22;1796;52.388;13.096;2023-07-29T04:35:49;16.90;99.90
3564;DHT22;1796;52.388;13.096;2023-07-29T04:38:16;17.50;99.90
3564;DHT22;1796;52.388;13.096;2023-07-29T04:40:43;18.20;99.90
3564;DHT22;1796;52.388;13.096;2023-07-29T04:43:09;18.50;99.90
3564;DHT22;1796;52.388;13.096;2023-07-29T04:45:37;18.70;99.90
3564;DHT22;1796;52.388;13.096;2023-07-29T04:48:09;18.50;99.90
3564;DHT22;1796;52.388;13.096;2023-07-29T04:50:36;18.70;99.90
3564;DHT22;1796;52.388;13.096;2023-07-29T04:53:03;18.80;99.90
3564;DHT22;1796;52.388;13.096;2023-07-29T04:55:30;18.80;99.90
3564;DHT22;1796;52.388;13.096;2023-07-29T04:57:57;18.70;99.90
3564;DHT22;1796;52.388;13.096;2023-07-29T05:00:25;19.10;99.90
3564;DHT22;1796;52.388;13.096;2023-07-29T05:02:52;19.30;99.90
3564;DHT22;1796;52.388;13.096;2023-07-29T05:05:20;19.30;99.90
3564;DHT22;1796;52.388;13.096;2023-07-29T05:07:47;19.20;99.90
3564;DHT22;1796;52.388;13.096;2023-07-29T05:10:14;19.20;99.90
3564;DHT22;1796;52.388;13.096;2023-07-29T05:12:42;19.10;99.90
3564;DHT22;1796;52.388;13.096;2023-07-29T05:15:09;19.10;99.90
3564;DHT22;1796;52.388;13.096;2023-07-29T05:17:36;19.10;99.90
3564;DHT22;1796;52.388;13.096;2023-07-29T05:20:04;19.20;99.90
3564;DHT22;1796;52.388;13.096;2023-07-29T05:22:33;19.90;99.90
3564;DHT22;1796;52.388;13.096;2023-07-29T05:24:59;20.30;99.90
3564;DHT22;1796;52.388;13.096;2023-07-29T05:27:26;20.20;99.90
3564;DHT22;1796;52.388;13.096;2023-07-29T05:29:53;20.10;99.90
3564;DHT22;1796;52.388;13.096;2023-07-29T05:32:20;20.40;99.90
3564;DHT22;1796;52.388;13.096;2023-07-29T05:34:47;20.80;99.90
3564;DHT22;1796;52.388;13.096;2023-07-29T05:37:14;21.20;99.90
3564;DHT22;1796;52.388;13.096;2023-07-29T05:39:42;21.10;99.90
3564;DHT22;1796;52.388;13.096;2023-07-29T05:42:09;21.00;99.90
3564;DHT22;1796;52.388;13.096;2023-07-29T05:44:36;21.00;99.90
3564;DHT22;1796;52.388;13.096;2023-07-29T05:47:03;21.10;99.90
3564;DHT22;1796;52.388;13.096;2023-07-29T05:49:29;20.80;99.90
3564;DHT22;1796;52.388;13.096;2023-07-29T05:51:56;20.70;99.90
3564;DHT22;1796;52.388;13.096;2023-07-29T05:54:23;20.90;99.90
3564;DHT22;1796;52.388;13.096;2023-07-29T05:56:51;21.20;99.90
3564;DHT22;1796;52.388;13.096;2023-07-29T05:59:18;21.50;99.90
3564;DHT22;1796;52.388;13.096;2023-07-29T06:01:45;22.10;99.90
3564;DHT22;1796;52.388;13.096;2023-07-29T06:04:12;22.70;99.90
3564;DHT22;1796;52.388;13.096;2023-07-29T06:06:39;23.40;99.90
3564;DHT22;1796;52.388;13.096;2023-07-29T06:09:06;23.60;99.90
3564;DHT22;1796;52.388;13.096;2023-07-29T06:11:32;23.90;99.90
3564;DHT22;1796;52.388;13.096;2023-07-29T06:14:01;24.20;99.90
3564;DHT22;1796;52.388;13.096;2023-07-29T06:16:27;24.30;99.90
3564;DHT22;1796;52.388;13.096;2023-07-29T06:18:54;24.90;99.90
3564;DHT22;1796;52.388;13.096;2023-07-29T06:21:21;25.00;99.90
3564;DHT22;1796;52.388;13.096;2023-07-29T06:23:48;25.20;99.90
3564;DHT22;1796;52.388;13.096;2023-07-29T06:26:15;25.70;99.90
3564;DHT22;1796;52.388;13.096;2023-07-29T06:28:42;25.70;99.90
3564;DHT22;1796;52.388;13.096;2023-07-29T06:31:10;26.30;99.90
3564;DHT22;1796;52.388;13.096;2023-07-29T06:33:37;26.20;99.90
3564;DHT22;1796;52.388;13.096;2023-07-29T06:36:04;26.50;99.90
3564;DHT22;1796;52.388;13.096;2023-07-29T06:38:31;26.80;99.90
3564;DHT22;1796;52.388;13.096;2023-07-29T06:40:58;27.40;99.90
3564;DHT22;1796;52.388;13.096;2023-07-29T06:43:25;27.20;99.90
3564;DHT22;1796;52.388;13.096;2023-07-29T06:45:52;27.60;99.90
3564;DHT22;1796;52.388;13.096;2023-07-29T06:48:20;27.30;99.90
3564;DHT22;1796;52.388;13.096;2023-07-29T06:50:47;27.30;99.90
3564;DHT22;1796;52.388;13.096;2023-07-29T06:53:15;27.60;99.90
3564;DHT22;1796;52.388;13.096;2023-07-29T06:55:42;27.00;99.90
3564;DHT22;1796;52.388;13.096;2023-07-29T06:58:09;27.20;99.90
3564;DHT22;1796;52.388;13.096;2023-07-29T07:00:36;27.50;99.90
3564;DHT22;1796;52.388;13.096;2023-07-29T07:03:03;27.40;99.90
3564;DHT22;1796;52.388;13.096;2023-07-29T07:05:32;27.10;99.90
3564;DHT22;1796;52.388;13.096;2023-07-29T07:07:59;27.40;99.90
3564;DHT22;1796;52.388;13.096;2023-07-29T07:10:26;27.50;99.90
3564;DHT22;1796;52.388;13.096;2023-07-29T07:12:52;27.50;99.90
3564;DHT22;1796;52.388;13.096;2023-07-29T07:15:19;27.60;99.90
3564;DHT22;1796;52.388;13.096;2023-07-29T07:17:46;27.70;99.90
3564;DHT22;1796;52.388;13.096;2023-07-29T07:20:13;28.00;99.90
3564;DHT22;1796;52.388;13.096;2023-07-29T07:22:41;28.20;99.90
3564;DHT22;1796;52.388;13.096;2023-07-29T07:25:08;28.80;99.90
3564;DHT22;1796;52.388;13.096;2023-07-29T07:27:36;29.20;99.90
3564;DHT22;1796;52.388;13.096;2023-07-29T07:30:03;29.90;99.90
3564;DHT22;1796;52.388;13.096;2023-07-29T07:32:30;30.00;99.90
3564;DHT22;1796;52.388;13.096;2023-07-29T07:34:57;30.30;99.90
3564;DHT22;1796;52.388;13.096;2023-07-29T07:37:24;30.50;99.90
3564;DHT22;1796;52.388;13.096;2023-07-29T07:39:52;30.70;99.90
3564;DHT22;1796;52.388;13.096;2023-07-29T07:42:19;30.70;99.90
3564;DHT22;1796;52.388;13.096;2023-07-29T07:44:46;30.40;99.90
3564;DHT22;1796;52.388;13.096;2023-07-29T07:47:13;31.10;99.90
3564;DHT22;1796;52.388;13.096;2023-07-29T07:49:39;30.60;99.90
3564;DHT22;1796;52.388;13.096;2023-07-29T07:52:07;30.40;99.90
3564;DHT22;1796;52.388;13.096;2023-07-29T07:54:34;30.40;99.90
3564;DHT22;1796;52.388;13.096;2023-07-29T07:57:02;31.30;99.90
3564;DHT22;1796;52.388;13.096;2023-07-29T07:59:29;31.50;99.90
3564;DHT22;1796;52.388;13.096;2023-07-29T08:01:56;30.80;99.90
3564;DHT22;1796;52.388;13.096;2023-07-29T08:04:23;29.60;99.90
3564;DHT22;1796;52.388;13.096;2023-07-29T08:06:49;30.40;99.90
3564;DHT22;1796;52.388;13.096;2023-07-29T08:09:16;30.60;99.90
3564;DHT22;1796;52.388;13.096;2023-07-29T08:11:43;30.10;99.90
3564;DHT22;1796;52.388;13.096;2023-07-29T08:14:11;29.60;99.90
3564;DHT22;1796;52.388;13.096;2023-07-29T08:16:38;29.10;99.90
3564;DHT22;1796;52.388;13.096;2023-07-29T08:19:05;28.80;99.90
3564;DHT22;1796;52.388;13.096;2023-07-29T08:21:32;28.20;99.90
3564;DHT22;1796;52.388;13.096;2023-07-29T08:23:59;27.80;99.90
3564;DHT22;1796;52.388;13.096;2023-07-29T08:26:26;27.90;99.90
3564;DHT22;1796;52.388;13.096;2023-07-29T08:28:53;27.70;99.90
3564;DHT22;1796;52.388;13.096;2023-07-29T08:31:21;27.40;99.90
3564;DHT22;1796;52.388;13.096;2023-07-29T08:33:48;27.40;99.90
3564;DHT22;1796;52.388;13.096;2023-07-29T08:36:15;27.20;99.90
3564;DHT22;1796;52.388;13.096;2023-07-29T08:38:42;27.00;99.90
3564;DHT22;1796;52.388;13.096;2023-07-29T08:41:13;27.00;99.90
3564;DHT22;1796;52.388;13.096;2023-07-29T08:43:44;27.30;99.90
3564;DHT22;1796;52.388;13.096;2023-07-29T08:46:15;27.70;99.90
3564;DHT22;1796;52.388;13.096;2023-07-29T08:48:44;27.90;99.90
3564;DHT22;1796;52.388;13.096;2023-07-29T08:51:11;28.10;99.90
3564;DHT22;1796;52.388;13.096;2023-07-29T08:53:39;27.90;99.90
3564;DHT22;1796;52.388;13.096;2023-07-29T08:56:07;27.80;99.90
3564;DHT22;1796;52.388;13.096;2023-07-29T08:58:35;27.80;99.90
3564;DHT22;1796;52.388;13.096;2023-07-29T09:01:02;28.10;99.90
3564;DHT22;1796;52.388;13.096;2023-07-29T09:03:29;27.80;99.90
3564;DHT22;1796;52.388;13.096;2023-07-29T09:05:58;27.80;99.90
3564;DHT22;1796;52.388;13.096;2023-07-29T09:08:26;27.90;99.90
3564;DHT22;1796;52.388;13.096;2023-07-29T09:10:53;28.40;99.90
3564;DHT22;1796;52.388;13.096;2023-07-29T09:13:21;28.50;99.90
3564;DHT22;1796;52.388;13.096;2023-07-29T09:15:48;28.70;99.90
3564;DHT22;1796;52.388;13.096;2023-07-29T09:18:16;28.60;99.90
3564;DHT22;1796;52.388;13.096;2023-07-29T09:20:43;28.70;99.90
3564;DHT22;1796;52.388;13.096;2023-07-29T09:23:11;28.60;99.90
3564;DHT22;1796;52.388;13.096;2023-07-29T09:25:39;28.40;99.90
3564;DHT22;1796;52.388;13.096;2023-07-29T09:28:10;28.60;99.90
3564;DHT22;1796;52.388;13.096;2023-07-29T09:30:38;28.50;99.90
3564;DHT22;1796;52.388;13.096;2023-07-29T09:33:05;28.20;99.90
3564;DHT22;1796;52.388;13.096;2023-07-29T09:35:34;28.30;99.90
3564;DHT22;1796;52.388;13.096;2023-07-29T09:38:01;28.60;99.90
3564;DHT22;1796;52.388;13.096;2023-07-29T09:40:34;28.90;99.90
3564;DHT22;1796;52.388;13.096;2023-07-29T09:43:01;28.80;99.90
3564;DHT22;1796;52.388;13.096;2023-07-29T09:45:29;28.90;99.90
3564;DHT22;1796;52.388;13.096;2023-07-29T09:47:57;29.10;99.90
3564;DHT22;1796;52.388;13.096;2023-07-29T09:50:25;29.50;99.90
3564;DHT22;1796;52.388;13.096;2023-07-29T09:52:53;29.30;99.90
3564;DHT22;1796;52.388;13.096;2023-07-29T09:55:22;28.30;99.90
3564;DHT22;1796;52.388;13.096;2023-07-29T09:57:56;27.80;99.90
3564;DHT22;1796;52.388;13.096;2023-07-29T10:00:26;27.70;99.90
3564;DHT22;1796;52.388;13.096;2023-07-29T10:02:53;27.60;99.90
3564;DHT22;1796;52.388;13.096;2023-07-29T10:05:21;27.60;99.90
3564;DHT22;1796;52.388;13.096;2023-07-29T10:07:48;27.30;99.90
3564;DHT22;1796;52.388;13.096;2023-07-29T10:10:16;27.70;99.90
3564;DHT22;1796;52.388;13.096;2023-07-29T10:12:44;28.30;99.90
3564;DHT22;1796;52.388;13.096;2023-07-29T10:15:13;28.60;99.90
3564;DHT22;1796;52.388;13.096;2023-07-29T10:17:41;28.90;99.90
3564;DHT22;1796;52.388;13.096;2023-07-29T10:20:09;29.10;99.90
3564;DHT22;1796;52.388;13.096;2023-07-29T10:22:39;29.10;99.90
3564;DHT22;1796;52.388;13.096;2023-07-29T10:25:09;29.20;99.90
3564;DHT22;1796;52.388;13.096;2023-07-29T10:27:43;29.00;99.90
3564;DHT22;1796;52.388;13.096;2023-07-29T10:30:12;29.20;99.90
3564;DHT22;1796;52.388;13.096;2023-07-29T10:32:42;29.00;99.90
3564;DHT22;1796;52.388;13.096;2023-07-29T10:35:10;28.80;99.90
3564;DHT22;1796;52.388;13.096;2023-07-29T10:37:38;28.50;99.90
3564;DHT22;1796;52.388;13.096;2023-07-29T10:40:07;28.40;99.90
3564;DHT22;1796;52.388;13.096;2023-07-29T10:42:35;28.00;99.90
3564;DHT22;1796;52.388;13.096;2023-07-29T10:47:55;27.60;99.90
3564;DHT22;1796;52.388;13.096;2023-07-29T10:50:22;23.80;99.90
3564;DHT22;1796;52.388;13.096;2023-07-29T10:52:50;22.50;99.90
3564;DHT22;1796;52.388;13.096;2023-07-29T10:55:26;22.00;99.90
3564;DHT22;1796;52.388;13.096;2023-07-29T10:58:07;22.00;99.90
3564;DHT22;1796;52.388;13.096;2023-07-29T11:00:34;22.10;99.90
3564;DHT22;1796;52.388;13.096;2023-07-29T11:03:05;22.00;99.90
3564;DHT22;1796;52.388;13.096;2023-07-29T11:05:44;22.20;99.90
3564;DHT22;1796;52.388;13.096;2023-07-29T11:08:23;22.20;99.90
3564;DHT22;1796;52.388;13.096;2023-07-29T11:11:02;22.10;99.90
3564;DHT22;1796;52.388;13.096;2023-07-29T11:13:29;22.10;99.90
3564;DHT22;1796;52.388;13.096;2023-07-29T11:15:57;22.10;99.90
3564;DHT22;1796;52.388;13.096;2023-07-29T11:18:28;22.10;99.90
3564;DHT22;1796;52.388;13.096;2023-07-29T11:20:57;22.10;99.90
3564;DHT22;1796;52.388;13.096;2023-07-29T11:23:32;22.10;99.90
3564;DHT22;1796;52.388;13.096;2023-07-29T11:25:59;21.90;99.90
3564;DHT22;1796;52.388;13.096;2023-07-29T11:28:27;21.00;99.90
3564;DHT22;1796;52.388;13.096;2023-07-29T11:30:55;20.60;99.90
3564;DHT22;1796;52.388;13.096;2023-07-29T11:33:24;20.60;99.90
3564;DHT22;1796;52.388;13.096;2023-07-29T11:35:52;20.50;99.90
3564;DHT22;1796;52.388;13.096;2023-07-29T11:38:20;20.60;99.90
3564;DHT22;1796;52.388;13.096;2023-07-29T11:40:55;20.80;99.90
3564;DHT22;1796;52.388;13.096;2023-07-29T11:43:22;20.70;99.90
3564;DHT22;1796;52.388;13.096;2023-07-29T11:45:50;20.80;99.90
3564;DHT22;1796;52.388;13.096;2023-07-29T11:48:17;20.80;99.90
3564;DHT22;1796;52.388;13.096;2023-07-29T11:50:45;20.70;99.90
3564;DHT22;1796;52.388;13.096;2023-07-29T11:53:14;20.70;99.90
3564;DHT22;1796;52.388;13.096;2023-07-29T11:55:40;20.70;99.90
3564;DHT22;1796;52.388;13.096;2023-07-29T11:58:07;20.70;99.90
3564;DHT22;1796;52.388;13.096;2023-07-29T12:00:34;20.60;99.90
3564;DHT22;1796;52.388;13.096;2023-07-29T12:03:01;20.70;99.90
3564;DHT22;1796;52.388;13.096;2023-07-29T12:05:29;20.40;99.90
3564;DHT22;1796;52.388;13.096;2023-07-29T12:07:56;20.40;99.90
3564;DHT22;1796;52.388;13.096;2023-07-29T12:10:25;20.40;99.90
3564;DHT22;1796;52.388;13.096;2023-07-29T12:12:52;20.60;99.90
3564;DHT22;1796;52.388;13.096;2023-07-29T12:15:24;20.70;99.90
3564;DHT22;1796;52.388;13.096;2023-07-29T12:17:53;21.10;99.90
3564;DHT22;1796;52.388;13.096;2023-07-29T12:20:21;21.40;99.90
3564;DHT22;1796;52.388;13.096;2023-07-29T12:22:52;21.60;99.90
3564;DHT22;1796;52.388;13.096;2023-07-29T12:25:19;21.50;99.90
3564;DHT22;1796;52.388;13.096;2023-07-29T12:27:48;21.60;99.90
3564;DHT22;1796;52.388;13.096;2023-07-29T12:30:15;22.30;99.90
3564;DHT22;1796;52.388;13.096;2023-07-29T12:32:46;22.70;99.90
3564;DHT22;1796;52.388;13.096;2023-07-29T12:35:14;22.90;99.90
3564;DHT22;1796;52.388;13.096;2023-07-29T12:37:41;22.60;99.90
3564;DHT22;1796;52.388;13.096;2023-07-29T12:40:20;22.70;99.90
3564;DHT22;1796;52.388;13.096;2023-07-29T12:42:49;22.50;99.90
3564;DHT22;1796;52.388;13.096;2023-07-29T12:45:17;22.60;99.90
3564;DHT22;1796;52.388;13.096;2023-07-29T12:47:44;22.90;99.90
3564;DHT22;1796;52.388;13.096;2023-07-29T12:50:11;22.70;99.90
3564;DHT22;1796;52.388;13.096;2023-07-29T12:52:38;22.80;99.90
3564;DHT22;1796;52.388;13.096;2023-07-29T12:55:05;22.90;99.90
3564;DHT22;1796;52.388;13.096;2023-07-29T12:57:34;22.90;99.90
3564;DHT22;1796;52.388;13.096;2023-07-29T13:00:03;22.80;99.90
3564;DHT22;1796;52.388;13.096;2023-07-29T13:02:31;22.90;99.90
3564;DHT22;1796;52.388;13.096;2023-07-29T13:04:58;23.10;99.90
3564;DHT22;1796;52.388;13.096;2023-07-29T13:07:24;23.00;99.90
3564;DHT22;1796;52.388;13.096;2023-07-29T13:09:51;22.80;99.90
3564;DHT22;1796;52.388;13.096;2023-07-29T13:12:18;22.70;99.90
3564;DHT22;1796;52.388;13.096;2023-07-29T13:14:45;22.70;99.90
3564;DHT22;1796;52.388;13.096;2023-07-29T13:17:13;22.90;99.90
3564;DHT22;1796;52.388;13.096;2023-07-29T13:19:40;23.00;99.90
3564;DHT22;1796;52.388;13.096;2023-07-29T13:22:07;23.00;99.90
3564;DHT22;1796;52.388;13.096;2023-07-29T13:24:34;23.20;99.90
3564;DHT22;1796;52.388;13.096;2023-07-29T13:27:00;23.50;99.90
3564;DHT22;1796;52.388;13.096;2023-07-29T13:29:27;23.90;99.90
3564;DHT22;1796;52.388;13.096;2023-07-29T13:31:54;24.20;99.90
3564;DHT22;1796;52.388;13.096;2023-07-29T13:34:22;24.70;99.90
3564;DHT22;1796;52.388;13.096;2023-07-29T13:36:49;25.00;99.90
3564;DHT22;1796;52.388;13.096;2023-07-29T13:39:16;25.40;99.90
3564;DHT22;1796;52.388;13.096;2023-07-29T13:41:43;25.40;99.90
3564;DHT22;1796;52.388;13.096;2023-07-29T13:44:10;25.60;99.90
3564;DHT22;1796;52.388;13.096;2023-07-29T13:46:37;25.60;99.90
3564;DHT22;1796;52.388;13.096;2023-07-29T13:49:04;25.60;99.90
3564;DHT22;1796;52.388;13.096;2023-07-29T13:51:32;25.50;99.90
3564;DHT22;1796;52.388;13.096;2023-07-29T13:53:59;25.50;99.90
3564;DHT22;1796;52.388;13.096;2023-07-29T13:56:25;25.60;99.90
3564;DHT22;1796;52.388;13.096;2023-07-29T13:58:52;25.80;99.90
3564;DHT22;1796;52.388;13.096;2023-07-29T14:01:19;26.10;99.90
3564;DHT22;1796;52.388;13.096;2023-07-29T14:03:46;26.30;99.90
3564;DHT22;1796;52.388;13.096;2023-07-29T14:06:13;26.10;99.90
3564;DHT22;1796;52.388;13.096;2023-07-29T14:08:41;25.80;99.90
3564;DHT22;1796;52.388;13.096;2023-07-29T14:11:08;25.20;99.90
3564;DHT22;1796;52.388;13.096;2023-07-29T14:13:35;25.20;99.90
3564;DHT22;1796;52.388;13.096;2023-07-29T14:16:02;25.20;99.90
3564;DHT22;1796;52.388;13.096;2023-07-29T14:18:29;25.20;99.90
3564;DHT22;1796;52.388;13.096;2023-07-29T14:20:56;25.30;99.90
3564;DHT22;1796;52.388;13.096;2023-07-29T14:23:23;25.50;99.90
3564;DHT22;1796;52.388;13.096;2023-07-29T14:25:51;25.60;99.90
3564;DHT22;1796;52.388;13.096;2023-07-29T14:28:18;25.60;99.90
3564;DHT22;1796;52.388;13.096;2023-07-29T14:30:46;25.60;99.90
3564;DHT22;1796;52.388;13.096;2023-07-29T14:33:13;25.80;99.90
3564;DHT22;1796;52.388;13.096;2023-07-29T14:35:40;25.80;99.90
3564;DHT22;1796;52.388;13.096;2023-07-29T14:38:07;25.70;99.90
3564;DHT22;1796;52.388;13.096;2023-07-29T14:40:34;25.80;99.90
3564;DHT22;1796;52.388;13.096;2023-07-29T14:43:02;25.70;99.90
3564;DHT22;1796;52.388;13.096;2023-07-29T14:45:29;25.50;99.90
3564;DHT22;1796;52.388;13.096;2023-07-29T14:47:56;25.50;99.90
3564;DHT22;1796;52.388;13.096;2023-07-29T14:50:22;25.30;99.90
3564;DHT22;1796;52.388;13.096;2023-07-29T14:52:49;25.10;99.90
3564;DHT22;1796;52.388;13.096;2023-07-29T14:55:16;25.10;99.90
3564;DHT22;1796;52.388;13.096;2023-07-29T14:57:43;25.20;99.90
3564;DHT22;1796;52.388;13.096;2023-07-29T15:00:12;25.20;99.90
3564;DHT22;1796;52.388;13.096;2023-07-29T15:02:40;25.20;99.90
3564;DHT22;1796;52.388;13.096;2023-07-29T15:05:07;25.10;99.90
3564;DHT22;1796;52.388;13.096;2023-07-29T15:07:34;25.20;99.90
3564;DHT22;1796;52.388;13.096;2023-07-29T15:10:01;25.00;99.90
3564;DHT22;1796;52.388;13.096;2023-07-29T15:12:29;25.00;99.90
3564;DHT22;1796;52.388;13.096;2023-07-29T15:14:56;24.90;99.90
3564;DHT22;1796;52.388;13.096;2023-07-29T15:17:24;24.80;99.90
3564;DHT22;1796;52.388;13.096;2023-07-29T15:19:51;24.60;99.90
3564;DHT22;1796;52.388;13.096;2023-07-29T15:22:18;24.00;99.90
3564;DHT22;1796;52.388;13.096;2023-07-29T15:24:45;19.30;99.90
3564;DHT22;1796;52.388;13.096;2023-07-29T15:27:12;18.00;99.90
3564;DHT22;1796;52.388;13.096;2023-07-29T15:29:39;18.40;99.90
3564;DHT22;1796;52.388;13.096;2023-07-29T15:32:06;18.70;99.90
3564;DHT22;1796;52.388;13.096;2023-07-29T15:34:34;18.90;99.90
3564;DHT22;1796;52.388;13.096;2023-07-29T15:37:02;18.90;99.90
3564;DHT22;1796;52.388;13.096;2023-07-29T15:39:29;19.10;99.90
3564;DHT22;1796;52.388;13.096;2023-07-29T15:41:56;19.20;99.90
3564;DHT22;1796;52.388;13.096;2023-07-29T15:44:23;19.60;99.90
3564;DHT22;1796;52.388;13.096;2023-07-29T15:46:50;19.90;99.90
3564;DHT22;1796;52.388;13.096;2023-07-29T15:49:18;20.10;99.90
3564;DHT22;1796;52.388;13.096;2023-07-29T15:51:46;20.30;99.90